Time;durP1;ratioP1;P1;durP2;ratioP2;P2;SDS_P1;SDS_P2;PMS_P1;PMS_P2;Temp;Humidity;BMP_temperature;BMP_pressure;BME280_temperature;BME280_humidity;BME280_pressure;Samples;Min_cycle;Max_cycle;Signal;HPM_P1;HPM_P2
2024/03/29 00:02:36;;;;;;;0.28;0.20;;;19.70;31.40;;;;;;6307468;28;20016;-74
2024/03/29 00:05:37;;;;;;;0.95;0.47;;;19.70;31.40;;;;;;6315627;28;20066;-75
2024/03/29 00:08:38;;;;;;;0.40;0.30;;;19.70;31.30;;;;;;6311333;28;20077;-75
2024/03/29 00:11:39;;;;;;;0.30;0.15;;;19.70;31.10;;;;;;6303199;28;20016;-76
2024/03/29 00:14:40;;;;;;;0.25;0.20;;;19.70;31.10;;;;;;6304162;28;20027;-76
2024/03/29 00:17:41;;;;;;;0.68;0.50;;;19.70;31.30;;;;;;6296656;28;20044;-76
2024/03/29 00:20:42;;;;;;;3.05;0.43;;;19.70;31.20;;;;;;6312406;28;20059;-75
2024/03/29 00:23:45;;;;;;;1.13;0.30;;;19.70;31.00;;;;;;6299068;28;20661;-75
2024/03/29 00:26:45;;;;;;;0.52;0.20;;;19.70;30.60;;;;;;6307542;28;20016;-76
2024/03/29 00:29:47;;;;;;;0.25;0.20;;;19.80;30.50;;;;;;6305834;28;20058;-75
2024/03/29 00:32:48;;;;;;;4.55;0.43;;;19.80;30.30;;;;;;6306460;28;20020;-75
2024/03/29 00:35:48;;;;;;;0.25;0.25;;;19.90;30.40;;;;;;6314514;28;20162;-75
2024/03/29 00:38:49;;;;;;;2.00;0.28;;;19.90;30.40;;;;;;6292093;28;20072;-76
2024/03/29 00:41:50;;;;;;;0.60;0.25;;;19.90;30.20;;;;;;6310272;28;20111;-76
2024/03/29 00:44:51;;;;;;;1.85;0.28;;;19.90;30.00;;;;;;6296654;28;20096;-76
2024/03/29 00:47:52;;;;;;;5.70;0.32;;;19.90;30.40;;;;;;6313949;28;20020;-76
2024/03/29 00:50:53;;;;;;;3.17;0.20;;;19.90;30.40;;;;;;6287899;28;20036;-75
2024/03/29 00:53:54;;;;;;;2.53;0.28;;;19.80;30.00;;;;;;6307663;28;20069;-75
2024/03/29 00:56:55;;;;;;;0.93;0.30;;;19.90;30.10;;;;;;6309812;28;20055;-76
2024/03/29 00:59:56;;;;;;;0.28;0.25;;;19.90;30.60;;;;;;6318322;28;20020;-76
2024/03/29 01:02:57;;;;;;;0.10;0.10;;;19.80;30.30;;;;;;6284600;28;20083;-77
2024/03/29 01:05:58;;;;;;;0.22;0.20;;;19.80;30.10;;;;;;6310260;28;20016;-74
2024/03/29 01:09:00;;;;;;;0.32;0.30;;;19.90;30.30;;;;;;6320135;28;20050;-75
2024/03/29 01:12:01;;;;;;;2.28;0.20;;;19.90;30.20;;;;;;6306696;28;20031;-76
2024/03/29 01:15:02;;;;;;;0.32;0.20;;;19.90;30.30;;;;;;6306861;28;20013;-75
2024/03/29 01:18:04;;;;;;;0.30;0.22;;;19.90;30.10;;;;;;6288999;28;20155;-74
2024/03/29 01:21:04;;;;;;;3.05;0.28;;;20.00;30.20;;;;;;6315718;28;20107;-77
2024/03/29 01:24:05;;;;;;;3.30;0.43;;;20.10;30.30;;;;;;6313233;28;20026;-76
2024/03/29 01:27:06;;;;;;;0.25;0.22;;;20.10;30.40;;;;;;6309707;28;20024;-76
2024/03/29 01:30:07;;;;;;;0.55;0.30;;;20.20;30.60;;;;;;6307860;28;20489;-77
2024/03/29 01:33:08;;;;;;;2.45;0.60;;;20.10;30.70;;;;;;6310932;28;20058;-76
2024/03/29 01:36:09;;;;;;;0.70;0.40;;;20.10;30.90;;;;;;6311298;28;20020;-76
2024/03/29 01:39:14;;;;;;;0.82;0.40;;;20.10;31.00;;;;;;6276874;28;20195;-76
2024/03/29 01:42:15;;;;;;;0.20;0.15;;;20.30;31.10;;;;;;6295799;28;20036;-75
2024/03/29 01:45:15;;;;;;;0.15;0.15;;;20.10;31.00;;;;;;6299357;28;20543;-75
2024/03/29 01:48:18;;;;;;;1.85;0.35;;;20.10;31.20;;;;;;6306275;28;20456;-75
2024/03/29 01:51:21;;;;;;;3.63;0.25;;;20.10;31.20;;;;;;6303807;28;20039;-75
2024/03/29 01:54:22;;;;;;;1.02;0.30;;;20.20;31.50;;;;;;6318349;28;20020;-75
2024/03/29 01:57:24;;;;;;;0.65;0.30;;;20.20;31.70;;;;;;6317526;28;20103;-74
2024/03/29 02:00:26;;;;;;;1.05;0.25;;;20.20;31.90;;;;;;6299298;28;20107;-74
2024/03/29 02:03:28;;;;;;;1.55;0.38;;;20.30;32.00;;;;;;6314608;28;20023;-76
2024/03/29 02:06:29;;;;;;;4.15;0.70;;;20.30;32.80;;;;;;6291737;28;20073;-76
2024/03/29 02:09:30;;;;;;;0.77;0.30;;;20.30;32.50;;;;;;6302046;28;20040;-75
2024/03/29 02:12:31;;;;;;;0.85;0.28;;;20.30;32.60;;;;;;6307012;28;20188;-75
2024/03/29 02:15:32;;;;;;;0.80;0.20;;;20.40;32.80;;;;;;6312063;28;20454;-76
2024/03/29 02:18:33;;;;;;;1.73;0.40;;;20.40;32.90;;;;;;6307745;28;20684;-75
2024/03/29 02:21:38;;;;;;;2.72;0.35;;;20.40;33.00;;;;;;6310675;28;20016;-75
2024/03/29 02:24:38;;;;;;;0.40;0.17;;;20.40;33.10;;;;;;6284992;28;20380;-76
2024/03/29 02:27:40;;;;;;;3.22;0.30;;;20.40;33.30;;;;;;6313749;28;20062;-74
2024/03/29 02:30:40;;;;;;;1.70;0.40;;;20.40;33.60;;;;;;6307522;28;20597;-74
2024/03/29 02:33:41;;;;;;;0.40;0.20;;;20.40;33.70;;;;;;6304673;28;20008;-76
2024/03/29 02:36:43;;;;;;;0.85;0.13;;;20.50;34.00;;;;;;6289961;28;20130;-76
2024/03/29 02:39:44;;;;;;;1.55;0.28;;;20.40;34.20;;;;;;6303511;28;20127;-76
2024/03/29 02:42:47;;;;;;;1.15;0.20;;;20.50;34.30;;;;;;6300680;28;20039;-76
2024/03/29 02:45:48;;;;;;;2.08;0.60;;;20.50;34.40;;;;;;6306958;28;20102;-75
2024/03/29 02:48:49;;;;;;;1.73;0.32;;;20.50;34.50;;;;;;6282524;28;20713;-75
2024/03/29 02:51:52;;;;;;;0.98;0.47;;;20.60;34.70;;;;;;6297573;28;20045;-76
2024/03/29 02:54:53;;;;;;;0.30;0.10;;;20.60;34.70;;;;;;6296137;28;20089;-75
2024/03/29 02:57:54;;;;;;;0.55;0.22;;;20.60;34.80;;;;;;6291584;28;20027;-76
2024/03/29 03:00:55;;;;;;;0.22;0.20;;;20.60;34.80;;;;;;6300002;28;20090;-76
2024/03/29 03:03:56;;;;;;;0.75;0.20;;;20.70;35.00;;;;;;6311372;28;20449;-75
2024/03/29 03:10:55;;;;;;;4.90;0.50;;;20.70;35.10;;;;;;6309234;28;20023;-75
2024/03/29 03:13:36;;;;;;;1.25;0.30;;;20.80;35.40;;;;;;6290042;28;20111;-76
2024/03/29 03:16:37;;;;;;;1.15;0.47;;;20.80;35.50;;;;;;6309419;28;20089;-75
2024/03/29 03:19:38;;;;;;;0.25;0.20;;;20.80;35.50;;;;;;6318089;28;20723;-75
2024/03/29 03:22:39;;;;;;;1.70;0.60;;;20.80;35.70;;;;;;6287193;28;20031;-75
2024/03/29 03:25:40;;;;;;;2.13;0.30;;;20.80;35.70;;;;;;6306228;28;20031;-77
2024/03/29 03:28:41;;;;;;;0.30;0.17;;;20.80;35.80;;;;;;6311797;28;20100;-77
2024/03/29 03:31:42;;;;;;;0.10;0.10;;;20.90;35.90;;;;;;6315825;28;20099;-77
2024/03/29 03:34:43;;;;;;;1.00;0.20;;;20.90;36.10;;;;;;6317518;28;20059;-76
2024/03/29 03:37:43;;;;;;;1.65;0.40;;;20.90;36.30;;;;;;6281235;28;20029;-76
2024/03/29 03:40:44;;;;;;;0.30;0.22;;;20.90;36.40;;;;;;6304020;28;20191;-76
2024/03/29 03:43:45;;;;;;;0.00;0.00;;;21.00;36.50;;;;;;6306787;28;20102;-76
2024/03/29 03:46:46;;;;;;;1.55;0.20;;;21.00;36.60;;;;;;6312981;28;20410;-77
2024/03/29 03:49:47;;;;;;;0.20;0.20;;;21.00;36.60;;;;;;6301849;28;20083;-76
2024/03/29 03:52:48;;;;;;;0.38;0.17;;;21.00;36.60;;;;;;6304918;28;20080;-76
2024/03/29 03:55:49;;;;;;;2.90;0.40;;;21.10;36.70;;;;;;6288797;28;20027;-77
2024/03/29 03:58:49;;;;;;;0.20;0.20;;;21.10;36.70;;;;;;6300946;28;20124;-76
2024/03/29 04:01:51;;;;;;;1.48;0.20;;;21.10;36.70;;;;;;6320797;28;20459;-76
2024/03/29 04:04:52;;;;;;;0.28;0.22;;;21.10;36.70;;;;;;6291668;28;20359;-77
2024/03/29 04:07:55;;;;;;;0.43;0.20;;;21.10;36.80;;;;;;6292346;28;20072;-77
2024/03/29 04:10:56;;;;;;;1.52;0.45;;;21.10;36.80;;;;;;6287558;28;20527;-75
2024/03/29 04:13:57;;;;;;;5.22;0.40;;;21.10;36.90;;;;;;6307848;28;20111;-76
2024/03/29 04:16:58;;;;;;;2.30;0.25;;;21.20;37.00;;;;;;6309725;28;20085;-76
2024/03/29 04:19:59;;;;;;;1.73;0.40;;;21.20;37.10;;;;;;6320378;28;20064;-76
2024/03/29 04:23:03;;;;;;;0.17;0.10;;;21.20;37.10;;;;;;6274467;28;20206;-77
2024/03/29 04:26:04;;;;;;;0.00;0.00;;;21.20;37.10;;;;;;6320232;28;20034;-77
2024/03/29 04:29:05;;;;;;;0.10;0.10;;;21.20;37.10;;;;;;6309562;28;20076;-76
2024/03/29 04:32:06;;;;;;;0.10;0.10;;;21.30;37.10;;;;;;6309600;28;20539;-76
2024/03/29 04:35:08;;;;;;;1.85;0.40;;;21.30;37.20;;;;;;6310851;28;20107;-77
2024/03/29 04:38:08;;;;;;;0.63;0.20;;;21.30;37.20;;;;;;6295656;28;20126;-76
2024/03/29 04:41:12;;;;;;;0.22;0.15;;;21.30;37.20;;;;;;6313620;28;20031;-76
2024/03/29 04:44:22;;;;;;;1.55;0.20;;;21.30;37.20;;;;;;6306325;28;20028;-77
2024/03/29 04:47:23;;;;;;;0.50;0.20;;;21.30;37.90;;;;;;6291802;28;20094;-74
2024/03/29 04:50:24;;;;;;;2.22;0.40;;;21.30;37.10;;;;;;6301190;28;20514;-76
2024/03/29 04:53:25;;;;;;;1.83;0.50;;;21.30;37.10;;;;;;6312016;28;20107;-75
2024/03/29 04:56:27;;;;;;;1.77;0.47;;;21.40;37.10;;;;;;6297781;28;20027;-74
2024/03/29 04:59:29;;;;;;;1.17;0.20;;;21.40;36.80;;;;;;6303358;28;20020;-76
2024/03/29 05:02:29;;;;;;;5.60;0.70;;;21.40;36.80;;;;;;6283865;28;20078;-76
2024/03/29 05:05:30;;;;;;;1.00;0.30;;;21.40;37.50;;;;;;6313969;28;20480;-77
2024/03/29 05:08:31;;;;;;;5.22;0.32;;;21.50;36.90;;;;;;6311839;28;20019;-75
2024/03/29 05:11:32;;;;;;;1.15;0.15;;;21.40;36.80;;;;;;6319787;28;20023;-76
2024/03/29 05:14:33;;;;;;;0.17;0.15;;;21.40;36.80;;;;;;6301237;28;20020;-75
2024/03/29 05:17:34;;;;;;;6.95;1.35;;;21.50;36.80;;;;;;6307107;28;20539;-75
2024/03/29 05:20:35;;;;;;;0.17;0.17;;;21.50;36.80;;;;;;6314819;28;20494;-76
2024/03/29 05:23:35;;;;;;;0.75;0.30;;;21.50;36.80;;;;;;6305923;28;20028;-76
2024/03/29 05:26:36;;;;;;;1.00;0.30;;;21.50;36.60;;;;;;6293083;28;20471;-76
2024/03/29 05:29:37;;;;;;;1.33;0.30;;;21.60;36.40;;;;;;6289816;28;20198;-76
2024/03/29 05:32:39;;;;;;;0.32;0.30;;;21.60;37.10;;;;;;6291561;28;20024;-76
2024/03/29 05:35:40;;;;;;;3.92;0.32;;;21.70;36.50;;;;;;6294575;28;20048;-78
2024/03/29 05:38:43;;;;;;;1.30;0.57;;;21.70;36.20;;;;;;6297064;28;20017;-78
2024/03/29 05:41:45;;;;;;;0.45;0.28;;;21.70;36.10;;;;;;6274144;28;20020;-77
2024/03/29 05:44:46;;;;;;;0.85;0.20;;;21.80;36.20;;;;;;6293855;28;20016;-76
2024/03/29 05:47:47;;;;;;;0.90;0.30;;;21.80;36.10;;;;;;6292007;28;20353;-77
2024/03/29 05:50:48;;;;;;;1.95;0.32;;;21.80;36.20;;;;;;6293292;28;20420;-77
2024/03/29 05:53:49;;;;;;;0.75;0.30;;;21.80;36.00;;;;;;6277174;28;20028;-76
2024/03/29 05:56:50;;;;;;;0.17;0.10;;;21.90;36.10;;;;;;6276250;28;20073;-79
2024/03/29 05:59:50;;;;;;;0.10;0.10;;;21.90;36.10;;;;;;6274784;28;20867;-76
2024/03/29 06:02:51;;;;;;;2.28;0.60;;;21.90;35.90;;;;;;6269841;28;20490;-78
2024/03/29 06:05:52;;;;;;;0.30;0.25;;;21.90;36.00;;;;;;6273012;28;20104;-75
2024/03/29 06:08:53;;;;;;;1.17;0.22;;;22.00;36.20;;;;;;6273471;28;20058;-74
2024/03/29 06:11:55;;;;;;;2.83;0.40;;;21.90;36.20;;;;;;6290092;28;20066;-76
2024/03/29 06:18:16;;;;;;;0.45;0.30;;;22.00;35.90;;;;;;6291214;28;20026;-76
2024/03/29 06:21:17;;;;;;;1.50;0.30;;;22.10;35.80;;;;;;6291509;28;20445;-77
2024/03/29 06:24:18;;;;;;;2.38;0.40;;;22.10;35.70;;;;;;6292033;28;20020;-77
2024/03/29 06:27:20;;;;;;;1.30;0.40;;;22.10;35.60;;;;;;6291312;28;20078;-75
2024/03/29 06:30:21;;;;;;;0.63;0.30;;;22.10;35.40;;;;;;6294886;28;20113;-77
2024/03/29 06:33:22;;;;;;;0.35;0.20;;;22.30;35.30;;;;;;6266514;28;20046;-75
2024/03/29 06:36:23;;;;;;;0.28;0.20;;;22.20;35.20;;;;;;6313540;28;20043;-77
2024/03/29 06:39:25;;;;;;;0.10;0.10;;;22.20;35.80;;;;;;6306789;28;20100;-76
2024/03/29 06:42:26;;;;;;;0.50;0.20;;;22.30;35.10;;;;;;6288847;28;20027;-77
2024/03/29 06:45:27;;;;;;;3.25;0.30;;;22.30;35.00;;;;;;6302785;28;20098;-77
2024/03/29 06:48:28;;;;;;;0.50;0.40;;;22.30;35.00;;;;;;6291170;28;20447;-77
2024/03/29 06:51:29;;;;;;;1.15;0.43;;;22.30;35.00;;;;;;6302417;28;20016;-76
2024/03/29 06:54:32;;;;;;;0.10;0.10;;;22.40;35.20;;;;;;6306110;28;20031;-77
2024/03/29 06:57:34;;;;;;;0.20;0.20;;;22.40;35.20;;;;;;6311977;28;20024;-77
2024/03/29 07:00:35;;;;;;;0.40;0.40;;;22.40;35.40;;;;;;6307661;28;20020;-77
2024/03/29 07:03:36;;;;;;;0.50;0.20;;;22.40;35.40;;;;;;6310408;28;20124;-76
2024/03/29 07:06:38;;;;;;;0.90;0.40;;;22.40;35.40;;;;;;6272197;28;20486;-76
2024/03/29 07:09:39;;;;;;;2.40;0.30;;;22.40;35.50;;;;;;6272738;28;20497;-76
2024/03/29 07:12:39;;;;;;;0.93;0.30;;;22.30;35.60;;;;;;6317242;28;20095;-75
2024/03/29 07:15:40;;;;;;;1.80;0.50;;;22.30;35.80;;;;;;6307056;28;20012;-77
2024/03/29 07:18:41;;;;;;;3.33;0.50;;;22.30;36.00;;;;;;6309351;28;20161;-79
2024/03/29 07:21:43;;;;;;;1.63;0.68;;;22.30;36.10;;;;;;6281673;28;20026;-78
2024/03/29 07:24:44;;;;;;;0.20;0.20;;;22.30;36.20;;;;;;6318296;28;20024;-78
2024/03/29 07:27:46;;;;;;;0.80;0.25;;;22.30;36.30;;;;;;6291029;28;20191;-77
2024/03/29 07:30:47;;;;;;;0.45;0.35;;;22.20;36.30;;;;;;6295112;28;20049;-76
2024/03/29 07:33:48;;;;;;;2.90;0.75;;;22.30;36.40;;;;;;6310903;28;20060;-77
2024/03/29 07:36:48;;;;;;;4.35;0.75;;;22.30;36.50;;;;;;6312821;28;20356;-77
2024/03/29 07:39:50;;;;;;;1.13;0.30;;;22.30;36.50;;;;;;6306314;28;20114;-77
2024/03/29 07:42:50;;;;;;;1.50;0.40;;;22.30;36.60;;;;;;6305987;28;20064;-77
2024/03/29 07:45:51;;;;;;;0.20;0.20;;;22.30;36.80;;;;;;6305917;28;20012;-77
2024/03/29 07:48:52;;;;;;;7.20;2.35;;;22.30;36.70;;;;;;6306432;28;20374;-76
2024/03/29 07:51:53;;;;;;;5.55;0.70;;;22.30;36.70;;;;;;6298885;28;20475;-80
2024/03/29 07:54:54;;;;;;;2.22;0.50;;;22.30;36.70;;;;;;6302430;28;20044;-79
2024/03/29 07:57:55;;;;;;;1.50;0.30;;;22.30;37.40;;;;;;6289962;28;20489;-79
2024/03/29 08:00:56;;;;;;;0.77;0.38;;;22.30;36.80;;;;;;6310361;28;20032;-81
2024/03/29 08:03:57;;;;;;;0.50;0.30;;;22.40;36.90;;;;;;6285429;28;20035;-79
2024/03/29 08:06:58;;;;;;;0.50;0.30;;;22.30;36.80;;;;;;6310430;28;20069;-79
2024/03/29 08:09:59;;;;;;;0.52;0.35;;;22.40;36.90;;;;;;6313172;28;20121;-78
2024/03/29 08:13:00;;;;;;;1.30;0.40;;;22.50;37.00;;;;;;6320415;28;20031;-79
2024/03/29 08:16:02;;;;;;;0.70;0.40;;;22.60;36.70;;;;;;6307050;28;20118;-77
2024/03/29 08:19:02;;;;;;;0.75;0.63;;;22.60;36.50;;;;;;6297360;28;20101;-81
2024/03/29 08:22:03;;;;;;;1.13;0.40;;;22.70;36.00;;;;;;6325796;28;20031;-80
2024/03/29 08:25:05;;;;;;;0.93;0.43;;;22.70;35.60;;;;;;6312758;28;20021;-80
2024/03/29 08:28:06;;;;;;;4.72;0.60;;;22.80;35.20;;;;;;6309006;28;20016;-80
2024/03/29 08:31:09;;;;;;;2.95;0.77;;;22.90;35.30;;;;;;6329344;28;20063;-79
2024/03/29 08:34:13;;;;;;;0.85;0.40;;;23.00;35.20;;;;;;6301678;28;20016;-80
2024/03/29 08:37:14;;;;;;;3.70;0.60;;;23.00;34.50;;;;;;6318688;28;20023;-80
2024/03/29 08:40:15;;;;;;;4.07;0.45;;;23.10;33.90;;;;;;6311118;28;20020;-79
2024/03/29 08:43:19;;;;;;;2.30;0.57;;;23.10;33.80;;;;;;6318675;28;20114;-79
2024/03/29 08:46:20;;;;;;;4.32;0.82;;;23.20;33.70;;;;;;6311608;28;20019;-80
2024/03/29 08:49:21;;;;;;;1.42;0.68;;;23.20;32.50;;;;;;6282291;28;20088;-81
2024/03/29 08:52:22;;;;;;;1.83;0.50;;;23.30;32.30;;;;;;6297190;28;20411;-80
2024/03/29 08:55:23;;;;;;;2.47;0.40;;;23.40;32.40;;;;;;6311829;28;20042;-79
2024/03/29 08:58:24;;;;;;;0.70;0.30;;;23.40;32.40;;;;;;6312808;28;20102;-79
2024/03/29 09:01:25;;;;;;;3.92;1.17;;;23.40;32.00;;;;;;6317165;28;20027;-79
2024/03/29 09:04:26;;;;;;;3.78;0.65;;;23.40;32.10;;;;;;6318447;28;20513;-80
2024/03/29 09:07:26;;;;;;;1.27;0.52;;;23.40;32.20;;;;;;6305400;28;20027;-80
2024/03/29 09:10:27;;;;;;;4.88;1.15;;;23.50;32.20;;;;;;6304984;28;20453;-79
2024/03/29 09:13:30;;;;;;;10.30;0.60;;;23.60;32.10;;;;;;6305758;28;20049;-80
2024/03/29 09:16:31;;;;;;;1.15;0.68;;;23.60;31.80;;;;;;6312659;28;20129;-79
2024/03/29 09:19:32;;;;;;;1.85;0.50;;;23.60;31.00;;;;;;6303993;28;20050;-79
2024/03/29 09:22:33;;;;;;;1.45;0.50;;;23.60;31.30;;;;;;6315127;28;20095;-78
2024/03/29 09:25:34;;;;;;;4.45;1.23;;;23.70;31.00;;;;;;6307670;28;20035;-80
2024/03/29 09:33:06;;;;;;;4.82;0.85;;;23.80;31.10;;;;;;6305721;28;20023;-81
2024/03/29 09:36:10;;;;;;;6.38;0.82;;;23.80;30.60;;;;;;6313484;28;20043;-79
2024/03/29 09:39:11;;;;;;;15.23;1.23;;;23.90;30.30;;;;;;6310232;28;20769;-82
2024/03/29 09:42:25;;;;;;;2.30;0.88;;;24.00;30.40;;;;;;6328770;28;20032;-80
2024/03/29 09:45:26;;;;;;;8.20;0.90;;;24.10;30.40;;;;;;6300372;28;20664;-79
2024/03/29 09:48:36;;;;;;;8.82;0.88;;;24.20;30.00;;;;;;6292703;28;20135;-79
2024/03/29 09:51:39;;;;;;;8.70;0.98;;;24.30;29.90;;;;;;6298079;28;20020;-79
2024/03/29 09:54:40;;;;;;;8.95;1.63;;;24.40;29.70;;;;;;6311281;28;20122;-79
2024/03/29 09:57:41;;;;;;;13.48;2.65;;;24.40;29.30;;;;;;6301615;28;20128;-79
2024/03/29 10:00:42;;;;;;;8.52;1.98;;;24.50;28.70;;;;;;6305395;28;20424;-79
2024/03/29 10:03:46;;;;;;;7.50;1.02;;;24.50;28.50;;;;;;6304795;28;20100;-80
2024/03/29 10:06:52;;;;;;;4.80;0.80;;;24.50;28.30;;;;;;6308314;28;20792;-79
2024/03/29 10:09:54;;;;;;;16.42;1.55;;;24.60;27.60;;;;;;6295667;28;20044;-79
2024/03/29 10:12:57;;;;;;;19.10;0.85;;;24.60;27.60;;;;;;6308562;28;20043;-79
2024/03/29 10:15:59;;;;;;;7.85;1.48;;;24.60;27.50;;;;;;6309850;28;20679;-80
2024/03/29 10:18:59;;;;;;;6.07;1.15;;;24.70;27.50;;;;;;6298369;28;20031;-78
2024/03/29 10:22:07;;;;;;;12.80;1.10;;;24.70;27.30;;;;;;6314765;28;20557;-80
2024/03/29 10:25:08;;;;;;;6.50;0.82;;;24.80;27.20;;;;;;6322558;28;20043;-79
2024/03/29 10:28:09;;;;;;;4.63;1.05;;;24.80;27.30;;;;;;6301436;28;20059;-79
2024/03/29 10:31:11;;;;;;;8.88;1.02;;;25.00;27.40;;;;;;6300664;28;20071;-80
2024/03/29 10:34:13;;;;;;;13.70;1.23;;;25.00;26.90;;;;;;6308057;28;20099;-79
2024/03/29 10:37:16;;;;;;;9.90;1.08;;;25.10;26.70;;;;;;6297489;28;20157;-79
2024/03/29 10:40:18;;;;;;;16.38;1.60;;;25.10;26.10;;;;;;6306852;28;20020;-79
2024/03/29 10:43:20;;;;;;;11.38;2.00;;;25.10;26.10;;;;;;6315252;28;20031;-82
2024/03/29 10:46:22;;;;;;;9.20;1.40;;;25.10;25.70;;;;;;6306656;28;20065;-81
2024/03/29 10:49:23;;;;;;;12.27;1.48;;;25.20;25.60;;;;;;6275810;28;20051;-78
2024/03/29 10:52:27;;;;;;;10.30;1.60;;;25.20;25.60;;;;;;6295004;28;20024;-77
2024/03/29 10:55:32;;;;;;;23.48;2.42;;;25.30;25.70;;;;;;6290201;28;20020;-77
2024/03/29 10:58:35;;;;;;;16.08;2.10;;;25.30;25.70;;;;;;6272488;28;20012;-77
2024/03/29 11:01:39;;;;;;;13.95;1.85;;;25.40;25.60;;;;;;6293439;28;20017;-76
2024/03/29 11:04:43;;;;;;;5.57;1.55;;;25.50;25.30;;;;;;6289617;28;20686;-77
2024/03/29 11:07:45;;;;;;;11.40;2.25;;;25.50;24.80;;;;;;6290444;28;20111;-77
2024/03/29 11:10:50;;;;;;;27.95;2.47;;;25.50;24.70;;;;;;6290418;28;20060;-77
2024/03/29 11:13:52;;;;;;;12.98;1.98;;;25.50;24.40;;;;;;6263733;28;20506;-79
2024/03/29 11:16:57;;;;;;;27.25;2.83;;;25.60;24.40;;;;;;6290046;28;20074;-76
2024/03/29 11:20:00;;;;;;;28.98;3.20;;;25.70;24.10;;;;;;6290121;28;20037;-77
2024/03/29 11:23:09;;;;;;;16.50;2.20;;;25.80;24.60;;;;;;6272906;28;20429;-77
2024/03/29 11:26:10;;;;;;;24.63;3.22;;;26.00;24.70;;;;;;6288215;28;20059;-78
2024/03/29 11:29:22;;;;;;;23.23;2.13;;;26.20;24.60;;;;;;6271827;28;20196;-77
2024/03/29 11:32:38;;;;;;;32.08;3.75;;;26.20;24.40;;;;;;6289721;28;20070;-76
2024/03/29 11:35:41;;;;;;;19.13;2.22;;;26.30;24.60;;;;;;6287621;28;20079;-76
2024/03/29 11:38:44;;;;;;;32.97;3.42;;;26.60;24.60;;;;;;6293032;28;20036;-76
2024/03/29 11:41:51;;;;;;;28.38;3.15;;;26.80;24.60;;;;;;6294998;28;20119;-77
2024/03/29 11:44:52;;;;;;;19.63;2.42;;;27.00;24.30;;;;;;6294668;28;20074;-76
2024/03/29 11:47:55;;;;;;;17.52;2.45;;;27.30;24.00;;;;;;6296222;28;20413;-76
2024/03/29 11:50:57;;;;;;;23.75;2.65;;;27.70;23.50;;;;;;6293995;28;20048;-75
2024/03/29 11:53:59;;;;;;;37.50;3.30;;;28.00;22.20;;;;;;6274087;28;20452;-78
2024/03/29 11:57:01;;;;;;;31.55;2.67;;;28.30;21.60;;;;;;6294099;28;20051;-76
2024/03/29 12:00:04;;;;;;;29.75;3.95;;;28.60;21.40;;;;;;6296736;28;20122;-77
2024/03/29 12:03:06;;;;;;;38.25;3.33;;;28.70;21.00;;;;;;6295666;28;20043;-77
2024/03/29 12:06:08;;;;;;;36.78;3.80;;;28.90;21.20;;;;;;6282882;28;20464;-77
2024/03/29 12:09:09;;;;;;;45.60;3.55;;;28.90;21.00;;;;;;6306620;28;20501;-77
2024/03/29 12:12:11;;;;;;;31.90;3.05;;;29.00;20.90;;;;;;6309166;28;20020;-77
2024/03/29 12:15:12;;;;;;;32.92;3.47;;;28.90;20.70;;;;;;6306177;28;20020;-79
2024/03/29 12:18:16;;;;;;;37.88;3.40;;;28.90;20.20;;;;;;6305492;28;20041;-77
2024/03/29 12:21:17;;;;;;;46.28;4.68;;;28.50;20.40;;;;;;6299629;28;20052;-78
2024/03/29 12:24:18;;;;;;;45.13;5.30;;;28.50;20.20;;;;;;6315202;28;20061;-78
2024/03/29 12:27:19;;;;;;;29.70;4.13;;;28.30;20.30;;;;;;6314860;28;20016;-79
2024/03/29 12:30:20;;;;;;;33.17;3.95;;;28.00;20.50;;;;;;6294290;28;20108;-77
2024/03/29 12:33:22;;;;;;;46.00;4.55;;;27.90;20.20;;;;;;6304217;28;20472;-76
2024/03/29 12:36:26;;;;;;;57.30;4.25;;;27.70;20.20;;;;;;6304351;28;20017;-80
2024/03/29 12:39:33;;;;;;;43.85;4.30;;;27.60;20.50;;;;;;6292859;28;20119;-77
2024/03/29 12:42:34;;;;;;;56.83;5.80;;;27.60;20.80;;;;;;6299004;28;20460;-74
2024/03/29 12:45:39;;;;;;;37.47;5.25;;;27.60;20.50;;;;;;6295201;28;20108;-75
2024/03/29 12:48:39;;;;;;;39.92;4.68;;;27.50;20.20;;;;;;6293669;28;20020;-75
2024/03/29 12:51:40;;;;;;;59.35;6.45;;;27.60;20.70;;;;;;6287613;28;20039;-75
2024/03/29 12:54:42;;;;;;;43.33;4.95;;;27.60;20.50;;;;;;6294141;28;20031;-74
2024/03/29 12:57:44;;;;;;;36.55;4.93;;;27.60;19.70;;;;;;6296834;28;20095;-75
2024/03/29 13:00:45;;;;;;;47.15;5.45;;;27.50;20.20;;;;;;6300936;28;20035;-76
2024/03/29 13:03:46;;;;;;;38.42;5.78;;;27.50;20.40;;;;;;6270828;28;20014;-74
2024/03/29 13:06:47;;;;;;;61.53;6.68;;;27.40;19.80;;;;;;6287500;28;20024;-75
2024/03/29 13:09:48;;;;;;;67.72;6.03;;;27.40;20.20;;;;;;6287897;28;20016;-74
2024/03/29 13:12:51;;;;;;;38.10;6.22;;;27.30;20.30;;;;;;6273870;28;20036;-76
2024/03/29 13:15:52;;;;;;;62.25;5.35;;;27.20;20.70;;;;;;6317461;28;20119;-76
2024/03/29 13:18:53;;;;;;;74.35;7.85;;;27.20;20.20;;;;;;6279096;28;20078;-75
2024/03/29 13:21:54;;;;;;;82.47;8.48;;;27.20;19.80;;;;;;6297341;28;20025;-77
2024/03/29 13:24:55;;;;;;;45.25;5.00;;;27.20;19.80;;;;;;6287885;28;20043;-75
2024/03/29 13:27:56;;;;;;;32.08;5.88;;;27.10;20.00;;;;;;6289442;28;20016;-76
2024/03/29 13:30:57;;;;;;;47.35;5.57;;;27.10;19.40;;;;;;6288165;28;20036;-74
2024/03/29 13:34:11;;;;;;;51.67;6.75;;;27.10;19.10;;;;;;6298194;28;20028;-76
2024/03/29 13:37:12;;;;;;;55.20;6.45;;;27.10;19.40;;;;;;6309695;28;20248;-74
2024/03/29 13:40:14;;;;;;;53.28;6.35;;;27.30;19.50;;;;;;6308844;28;20015;-76
2024/03/29 13:43:16;;;;;;;66.70;5.75;;;27.30;19.60;;;;;;6318202;28;20464;-76
2024/03/29 13:46:16;;;;;;;67.10;6.80;;;27.30;19.30;;;;;;6297748;28;20728;-76
2024/03/29 13:49:20;;;;;;;54.65;5.18;;;27.30;19.50;;;;;;6313847;28;20068;-77
2024/03/29 13:52:21;;;;;;;41.88;4.78;;;27.30;19.60;;;;;;6307947;28;20024;-76
2024/03/29 13:55:25;;;;;;;41.33;4.72;;;27.30;19.80;;;;;;6313873;28;20137;-75
2024/03/29 13:58:27;;;;;;;43.75;4.43;;;27.40;19.60;;;;;;6299982;28;20024;-77
2024/03/29 14:01:28;;;;;;;55.40;5.03;;;27.30;19.10;;;;;;6304972;28;20019;-76
2024/03/29 14:04:29;;;;;;;43.72;5.55;;;27.30;19.30;;;;;;6304579;28;20080;-76
2024/03/29 14:07:30;;;;;;;44.25;4.90;;;27.30;19.40;;;;;;6315231;28;20034;-76
2024/03/29 14:10:35;;;;;;;31.17;5.53;;;27.40;19.30;;;;;;6294985;28;20145;-76
2024/03/29 14:13:36;;;;;;;37.67;4.50;;;27.50;19.10;;;;;;6305692;28;20050;-77
2024/03/29 14:16:37;;;;;;;50.15;6.13;;;27.50;19.20;;;;;;6308586;28;20024;-76
2024/03/29 14:19:39;;;;;;;27.90;4.72;;;27.60;19.40;;;;;;6310997;28;20372;-76
2024/03/29 14:22:40;;;;;;;58.60;4.60;;;27.60;19.00;;;;;;6293952;28;20079;-75
2024/03/29 14:25:41;;;;;;;36.35;3.72;;;27.60;18.80;;;;;;6306934;28;20023;-76
2024/03/29 14:28:42;;;;;;;33.08;4.85;;;27.60;19.00;;;;;;6313633;28;20095;-74
2024/03/29 14:31:44;;;;;;;33.03;4.20;;;27.60;19.00;;;;;;6316212;28;20020;-75
2024/03/29 14:34:46;;;;;;;39.20;5.25;;;27.60;19.00;;;;;;6313583;28;20135;-76
2024/03/29 14:37:47;;;;;;;33.17;5.70;;;27.70;19.10;;;;;;6256049;28;20101;-76
2024/03/29 14:40:48;;;;;;;44.80;4.80;;;27.70;18.90;;;;;;6304621;28;20036;-76
2024/03/29 14:43:50;;;;;;;30.85;3.90;;;27.70;18.50;;;;;;6297533;28;20183;-75
2024/03/29 14:46:52;;;;;;;28.73;5.95;;;27.70;18.60;;;;;;6299684;28;20024;-76
2024/03/29 14:50:03;;;;;;;31.92;4.60;;;27.60;18.60;;;;;;6307727;28;20247;-76
2024/03/29 14:53:04;;;;;;;47.40;5.15;;;27.50;18.80;;;;;;6309378;28;20028;-77
2024/03/29 14:56:05;;;;;;;44.30;5.35;;;27.50;19.00;;;;;;6289864;28;20751;-76
2024/03/29 14:59:09;;;;;;;44.10;4.00;;;27.50;19.00;;;;;;6282741;28;20032;-76
2024/03/29 15:02:10;;;;;;;45.03;4.38;;;27.50;19.00;;;;;;6307067;28;20052;-76
2024/03/29 15:05:12;;;;;;;41.53;3.92;;;27.60;18.90;;;;;;6318804;28;20047;-77
2024/03/29 15:08:16;;;;;;;24.65;3.15;;;27.60;18.50;;;;;;6309070;28;20095;-75
2024/03/29 15:11:17;;;;;;;47.38;5.07;;;27.60;18.60;;;;;;6303424;28;20134;-75
2024/03/29 15:14:18;;;;;;;42.67;5.45;;;27.60;18.70;;;;;;6308119;28;20468;-77
2024/03/29 15:17:19;;;;;;;28.17;3.50;;;27.60;18.50;;;;;;6290320;28;20016;-79
2024/03/29 15:20:20;;;;;;;49.88;4.47;;;27.60;18.60;;;;;;6293811;28;20107;-79
2024/03/29 15:23:24;;;;;;;41.80;4.93;;;27.60;18.80;;;;;;6304722;28;20100;-79
2024/03/29 15:26:25;;;;;;;54.88;5.38;;;27.60;18.80;;;;;;6312906;28;20016;-77
2024/03/29 15:29:26;;;;;;;41.92;5.25;;;27.70;18.80;;;;;;6311173;28;20387;-76
2024/03/29 15:32:30;;;;;;;53.10;4.78;;;27.70;18.80;;;;;;6309032;28;20033;-76
2024/03/29 15:35:31;;;;;;;44.80;4.43;;;27.60;18.40;;;;;;6317926;28;20189;-77
2024/03/29 15:38:36;;;;;;;44.40;4.45;;;27.50;18.60;;;;;;6289020;28;20398;-75
2024/03/29 15:41:43;;;;;;;54.70;4.13;;;27.50;18.80;;;;;;6309226;28;20019;-74
2024/03/29 15:44:44;;;;;;;67.55;5.90;;;27.40;18.70;;;;;;6330512;28;20059;-76
2024/03/29 15:47:45;;;;;;;38.83;3.55;;;27.50;18.50;;;;;;6312506;28;20024;-76
2024/03/29 15:50:46;;;;;;;54.65;5.28;;;27.60;18.50;;;;;;6324943;28;20019;-76
2024/03/29 15:53:49;;;;;;;37.08;2.88;;;27.70;18.40;;;;;;6314175;28;20039;-74